createdAt,value
2022-11-24T00:01:28.888Z,30.67
2022-11-24T00:03:59.699Z,29.07
2022-11-24T00:06:28.198Z,28.67
2022-11-24T00:08:58.578Z,28.13
2022-11-24T00:11:28.751Z,29.20
2022-11-24T00:13:58.113Z,27.30
2022-11-24T00:16:28.445Z,25.90
2022-11-24T00:18:58.455Z,25.90
2022-11-24T00:21:28.406Z,27.23
2022-11-24T00:23:58.477Z,28.00
2022-11-24T00:26:28.068Z,27.17
2022-11-24T00:28:58.508Z,28.30
2022-11-24T00:31:28.914Z,28.50
2022-11-24T00:33:59.496Z,28.63
2022-11-24T00:36:29.926Z,26.70
2022-11-24T00:39:01.464Z,29.00
2022-11-24T00:41:30.598Z,28.37
2022-11-24T00:43:59.579Z,30.23
2022-11-24T00:46:28.927Z,29.03
2022-11-24T00:48:57.651Z,29.67
2022-11-24T00:51:27.972Z,30.10
2022-11-24T00:53:57.315Z,30.93
2022-11-24T00:56:27.318Z,27.70
2022-11-24T00:58:56.232Z,29.33
2022-11-24T01:01:26.238Z,29.33
2022-11-24T01:03:55.823Z,29.13
2022-11-24T01:06:25.829Z,29.60
2022-11-24T01:08:54.518Z,31.20
2022-11-24T01:11:24.801Z,29.10
2022-11-24T01:13:57.376Z,27.40
2022-11-24T01:16:28.857Z,27.63
2022-11-24T01:18:57.476Z,30.73
2022-11-24T01:21:25.793Z,28.67
2022-11-24T01:23:54.325Z,28.90
2022-11-24T01:26:23.317Z,28.50
2022-11-24T01:28:55.913Z,28.07
2022-11-24T01:31:24.769Z,28.27
2022-11-24T01:33:53.714Z,26.50
2022-11-24T01:36:22.693Z,26.67
2022-11-24T01:38:51.315Z,27.87
2022-11-24T01:41:21.339Z,28.93
2022-11-24T01:43:50.754Z,27.37
2022-11-24T01:46:24.984Z,25.97
2022-11-24T01:48:59.005Z,27.33
2022-11-24T01:51:29.616Z,29.57
2022-11-24T01:54:01.671Z,28.50
2022-11-24T01:56:31.304Z,28.70
2022-11-24T01:59:01.167Z,28.03
2022-11-24T02:01:32.157Z,29.90
2022-11-24T02:04:02.537Z,27.30
2022-11-24T02:06:33.121Z,30.57
2022-11-24T02:09:06.984Z,30.20
2022-11-24T02:11:38.053Z,29.80
2022-11-24T02:14:08.432Z,28.10
2022-11-24T02:16:39.371Z,30.67
2022-11-24T02:19:15.424Z,29.80
2022-11-24T02:21:43.528Z,28.73
2022-11-24T02:24:19.972Z,30.20
2022-11-24T02:26:51.989Z,30.43
2022-11-24T02:29:21.383Z,29.33
2022-11-24T02:31:52.269Z,29.37
2022-11-24T02:34:20.591Z,28.67
2022-11-24T02:36:48.615Z,27.50
2022-11-24T02:39:17.165Z,29.63
2022-11-24T02:41:51.261Z,28.87
2022-11-24T02:44:22.956Z,29.47
2022-11-24T02:46:51.158Z,29.77
2022-11-24T02:49:19.760Z,28.40
2022-11-24T02:51:47.834Z,29.43
2022-11-24T02:54:16.341Z,30.17
2022-11-24T02:56:44.389Z,29.53
2022-11-24T02:59:14.062Z,30.17
2022-11-24T03:01:42.293Z,30.87
2022-11-24T03:04:10.787Z,28.43
2022-11-24T03:06:38.945Z,32.57
2022-11-24T03:09:07.550Z,31.87
2022-11-24T03:11:35.679Z,29.57
2022-11-24T03:14:04.029Z,30.70
2022-11-24T03:16:34.139Z,31.17
2022-11-24T03:19:03.068Z,31.77
2022-11-24T03:21:31.063Z,30.27
2022-11-24T03:24:00.261Z,32.60
2022-11-24T03:26:28.877Z,30.90
2022-11-24T03:28:57.719Z,31.37
2022-11-24T03:31:26.097Z,29.67
2022-11-24T03:33:55.883Z,30.13
2022-11-24T03:36:24.212Z,31.63
2022-11-24T03:38:52.948Z,32.77
2022-11-24T03:41:21.834Z,31.10
2022-11-24T03:43:50.324Z,30.73
2022-11-24T03:46:18.552Z,30.83
2022-11-24T03:48:46.889Z,33.80
2022-11-24T03:51:16.199Z,32.00
2022-11-24T03:53:44.593Z,32.00
2022-11-24T03:56:12.628Z,32.87
2022-11-24T03:58:40.882Z,30.60
2022-11-24T04:01:09.114Z,31.37
2022-11-24T04:03:37.404Z,32.20
2022-11-24T04:06:05.619Z,32.33
2022-11-24T04:08:35.223Z,33.23
2022-11-24T04:11:03.846Z,30.97
2022-11-24T04:13:31.270Z,28.57
2022-11-24T04:15:59.417Z,32.03
2022-11-24T04:18:27.985Z,28.23
2022-11-24T04:20:56.114Z,28.67
2022-11-24T04:23:24.561Z,27.50
2022-11-24T04:25:54.073Z,26.20
2022-11-24T04:28:22.574Z,26.53
2022-11-24T04:30:50.548Z,26.67
2022-11-24T04:33:18.879Z,27.40
2022-11-24T04:35:46.880Z,27.13
2022-11-24T04:39:23.900Z,26.53
2022-11-24T04:41:05.672Z,29.13
2022-11-24T04:43:40.238Z,28.47
2022-11-24T04:46:12.167Z,24.97
2022-11-24T04:48:40.536Z,27.80
2022-11-24T04:51:08.752Z,27.37
2022-11-24T04:53:37.231Z,28.13
2022-11-24T04:56:08.073Z,28.20
2022-11-24T04:58:36.932Z,28.00
2022-11-24T05:01:08.977Z,26.83
2022-11-24T05:03:37.651Z,26.13
2022-11-24T05:06:06.378Z,28.10
2022-11-24T05:08:34.763Z,26.33
2022-11-24T05:11:07.362Z,27.37
2022-11-24T05:13:35.989Z,29.97
2022-11-24T05:16:04.225Z,28.63
2022-11-24T05:18:33.490Z,29.30
2022-11-24T05:21:01.768Z,34.43
2022-11-24T05:23:30.140Z,31.40
2022-11-24T05:26:00.832Z,31.67
2022-11-24T05:28:31.049Z,33.17
2022-11-24T05:31:01.487Z,32.13
2022-11-24T05:33:30.288Z,32.60
2022-11-24T05:36:02.620Z,31.63
2022-11-24T05:38:31.225Z,30.43
2022-11-24T05:41:01.947Z,30.90
2022-11-24T05:43:32.343Z,30.20
2022-11-24T05:46:01.360Z,31.97
2022-11-24T05:48:30.220Z,29.87
2022-11-24T05:50:59.615Z,32.23
2022-11-24T05:53:28.132Z,31.37
2022-11-24T05:55:56.475Z,29.30
2022-11-24T05:58:25.159Z,30.43
2022-11-24T06:00:54.715Z,31.07
2022-11-24T06:03:23.643Z,30.30
2022-11-24T06:05:51.815Z,30.30
2022-11-24T06:08:20.356Z,31.60
2022-11-24T06:10:48.389Z,30.47
2022-11-24T06:13:16.996Z,30.17
2022-11-24T06:15:45.360Z,29.30
2022-11-24T06:18:15.224Z,29.63
2022-11-24T06:20:53.108Z,26.23
2022-11-24T06:23:31.567Z,29.70
2022-11-24T06:25:59.853Z,29.67
2022-11-24T06:28:28.863Z,30.70
2022-11-24T06:31:00.715Z,29.13
2022-11-24T06:33:34.014Z,28.70
2022-11-24T06:36:03.586Z,30.57
2022-11-24T06:38:32.899Z,29.83
2022-11-24T06:41:01.920Z,29.17
2022-11-24T06:43:31.409Z,30.90
2022-11-24T06:46:00.248Z,28.00
2022-11-24T06:48:29.393Z,29.13
2022-11-24T06:51:01.689Z,28.63
2022-11-24T06:53:31.672Z,27.50
2022-11-24T06:56:00.867Z,27.80
2022-11-24T06:58:29.632Z,28.33
2022-11-24T07:00:57.829Z,28.50
2022-11-24T07:03:26.476Z,29.03
2022-11-24T07:05:58.145Z,25.17
2022-11-24T07:08:29.203Z,27.43
2022-11-24T07:10:57.460Z,25.70
2022-11-24T07:13:25.802Z,27.67
2022-11-24T07:15:53.914Z,26.33
2022-11-24T07:18:22.495Z,25.67
2022-11-24T07:20:50.633Z,25.50
2022-11-24T07:23:18.928Z,23.97
2022-11-24T07:25:48.462Z,25.73
2022-11-24T07:28:16.856Z,25.23
2022-11-24T07:30:44.919Z,24.73
2022-11-24T07:33:13.317Z,24.80
2022-11-24T07:35:41.304Z,25.23
2022-11-24T07:38:09.740Z,25.93
2022-11-24T07:40:37.819Z,27.20
2022-11-24T07:43:07.649Z,26.43
2022-11-24T07:45:36.694Z,26.63
2022-11-24T07:48:05.490Z,27.30
2022-11-24T07:50:33.565Z,26.17
2022-11-24T07:53:03.154Z,27.07
2022-11-24T07:55:31.375Z,27.37
2022-11-24T07:58:02.974Z,28.10
2022-11-24T08:00:32.483Z,29.77
2022-11-24T08:03:00.871Z,26.80
2022-11-24T08:05:29.151Z,28.30
2022-11-24T08:07:57.630Z,27.00
2022-11-24T08:10:25.852Z,28.63
2022-11-24T08:12:54.293Z,29.90
2022-11-24T08:15:22.348Z,28.97
2022-11-24T08:17:52.166Z,28.30
2022-11-24T08:20:20.435Z,29.20
2022-11-24T08:22:48.832Z,27.07
2022-11-24T08:25:18.512Z,27.63
2022-11-24T08:27:46.932Z,27.03
2022-11-24T08:30:15.574Z,30.00
2022-11-24T08:32:43.979Z,29.83
2022-11-24T08:35:16.713Z,28.33
2022-11-24T08:37:45.226Z,29.47
2022-11-24T08:40:14.442Z,27.70
2022-11-24T08:42:42.877Z,28.60
2022-11-24T08:45:20.331Z,26.67
2022-11-24T08:47:53.700Z,27.07
2022-11-24T08:50:23.902Z,28.07
2022-11-24T08:52:52.996Z,26.97
2022-11-24T08:55:21.282Z,27.80
2022-11-24T08:57:49.674Z,26.07
2022-11-24T09:00:22.537Z,25.53
2022-11-24T09:02:56.280Z,26.60
2022-11-24T09:05:51.141Z,26.23
2022-11-24T09:08:15.230Z,26.37
2022-11-24T09:10:43.980Z,25.90
2022-11-24T09:13:12.399Z,25.63
2022-11-24T09:15:40.581Z,26.70
2022-11-24T09:18:08.972Z,26.27
2022-11-24T09:20:38.395Z,25.73
2022-11-24T09:23:07.136Z,25.83
2022-11-24T09:25:35.346Z,25.63
2022-11-24T09:28:03.718Z,26.23
2022-11-24T09:30:31.861Z,26.40
2022-11-24T09:33:00.495Z,27.57
2022-11-24T09:35:28.572Z,26.43
2022-11-24T09:37:58.206Z,27.10
2022-11-24T09:40:26.325Z,28.47
2022-11-24T09:43:01.721Z,27.27
2022-11-24T09:46:04.473Z,28.10
2022-11-24T09:48:36.055Z,26.23
2022-11-24T09:51:05.544Z,30.40
2022-11-24T09:53:42.159Z,28.00
2022-11-24T09:56:21.126Z,30.60
2022-11-24T09:58:51.674Z,27.77
2022-11-24T10:01:22.622Z,27.87
2022-11-24T10:03:52.864Z,28.50
2022-11-24T10:06:24.694Z,28.23
2022-11-24T10:09:15.410Z,28.77
2022-11-24T10:11:51.152Z,29.67
2022-11-24T10:14:42.145Z,28.63
2022-11-24T10:17:22.644Z,29.80
2022-11-24T10:19:57.204Z,28.60
2022-11-24T10:22:37.717Z,30.07
2022-11-24T10:25:16.732Z,30.57
2022-11-24T10:27:46.472Z,29.33
2022-11-24T10:30:19.381Z,30.33
2022-11-24T10:32:49.754Z,30.30
2022-11-24T10:35:22.524Z,28.70
2022-11-24T10:37:58.255Z,28.50
2022-11-24T10:43:28.778Z,29.27
2022-11-24T10:46:07.210Z,29.80
2022-11-24T10:48:41.566Z,31.57
2022-11-24T10:51:38.220Z,30.00
2022-11-24T10:54:11.674Z,30.70
2022-11-24T10:56:42.815Z,32.03
2022-11-24T10:59:39.462Z,33.10
2022-11-24T11:02:34.753Z,33.13
2022-11-24T11:05:26.613Z,32.83
2022-11-24T11:08:15.698Z,34.77
2022-11-24T11:10:45.379Z,32.93
2022-11-24T11:13:26.528Z,34.17
2022-11-24T11:15:55.714Z,33.67
2022-11-24T11:18:30.791Z,35.47
2022-11-24T11:21:02.066Z,31.53
2022-11-24T11:23:33.183Z,36.20
2022-11-24T11:26:31.001Z,35.10
2022-11-24T11:34:50.494Z,32.60
2022-11-24T11:37:20.896Z,33.33
2022-11-24T11:39:51.270Z,34.67
2022-11-24T11:42:59.920Z,34.43
2022-11-24T11:45:19.470Z,34.57
2022-11-24T11:47:53.276Z,33.10
2022-11-24T11:50:28.741Z,34.70
2022-11-24T11:53:11.378Z,33.83
2022-11-24T11:55:57.996Z,35.37
2022-11-24T11:58:49.285Z,32.97
2022-11-24T12:01:45.388Z,33.67
2022-11-24T12:04:25.431Z,33.10
2022-11-24T12:07:17.637Z,35.13
2022-11-24T12:09:58.572Z,33.10
2022-11-24T12:12:48.791Z,33.33
2022-11-24T12:15:23.909Z,37.10
2022-11-24T12:17:58.477Z,35.67
2022-11-24T12:20:42.374Z,35.87
2022-11-24T12:23:21.065Z,34.70
2022-11-24T12:25:55.585Z,34.47
2022-11-24T12:28:36.570Z,38.83
2022-11-24T12:31:07.492Z,35.40
2022-11-24T12:34:01.567Z,33.97
2022-11-24T12:36:53.244Z,35.23
2022-11-24T12:39:28.607Z,38.23
2022-11-24T12:42:09.432Z,36.00
2022-11-24T12:45:00.637Z,35.57
2022-11-24T12:47:40.707Z,35.87
2022-11-24T12:50:13.740Z,36.63
2022-11-24T12:52:52.871Z,36.03
2022-11-24T12:55:25.657Z,36.93
2022-11-24T12:57:59.552Z,37.87
2022-11-24T13:00:35.201Z,36.73
2022-11-24T13:03:15.401Z,39.53
2022-11-24T13:05:53.260Z,37.57
2022-11-24T13:08:22.069Z,35.03
2022-11-24T13:10:58.149Z,38.60
2022-11-24T13:13:29.353Z,39.20
2022-11-24T13:19:09.255Z,36.30
2022-11-24T13:21:51.826Z,37.20
2022-11-24T13:24:26.058Z,38.50
2022-11-24T13:26:56.496Z,38.10
2022-11-24T13:29:36.362Z,39.23
2022-11-24T13:32:50.970Z,38.97
2022-11-24T13:35:19.182Z,38.80
2022-11-24T13:37:51.806Z,40.47
2022-11-24T13:40:59.871Z,39.77
2022-11-24T13:43:32.618Z,39.70
2022-11-24T13:46:00.678Z,39.93
2022-11-24T13:48:55.063Z,37.03
2022-11-24T13:51:25.099Z,36.30
2022-11-24T13:53:57.815Z,40.57
2022-11-24T13:56:31.772Z,38.23
2022-11-24T13:59:03.687Z,38.10
2022-11-24T14:01:33.345Z,37.43
2022-11-24T14:04:29.217Z,38.07
2022-11-24T14:07:07.342Z,37.90
2022-11-24T14:09:43.863Z,40.20
2022-11-24T14:12:16.974Z,36.60
2022-11-24T14:14:47.056Z,38.53
2022-11-24T14:17:21.327Z,39.67
2022-11-24T14:19:51.497Z,39.17
2022-11-24T14:22:22.726Z,39.63
2022-11-24T14:25:00.233Z,39.00
2022-11-24T14:27:31.261Z,38.40
2022-11-24T14:30:01.714Z,39.73
2022-11-24T14:32:30.225Z,41.73
2022-11-24T14:34:58.664Z,41.63
2022-11-24T14:37:26.832Z,37.40
2022-11-24T14:39:55.321Z,37.03
2022-11-24T14:42:28.268Z,39.53
2022-11-24T14:44:59.256Z,38.30
2022-11-24T14:47:31.958Z,38.90
2022-11-24T14:50:12.421Z,41.20
2022-11-24T14:52:46.482Z,38.20
2022-11-24T14:55:29.150Z,40.60
2022-11-24T14:57:59.478Z,39.47
2022-11-24T15:00:30.065Z,39.57
2022-11-24T15:03:16.016Z,39.13
2022-11-24T15:05:56.479Z,39.93
2022-11-24T15:08:26.127Z,38.70
2022-11-24T15:11:00.230Z,38.13
2022-11-24T15:13:34.914Z,38.40
2022-11-24T15:16:06.687Z,39.67
2022-11-24T15:18:39.958Z,39.07
2022-11-24T15:21:10.808Z,37.80
2022-11-24T15:23:43.205Z,39.00
2022-11-24T15:26:30.676Z,36.27
2022-11-24T15:29:00.978Z,39.13
2022-11-24T15:31:29.587Z,39.13
2022-11-24T15:33:57.728Z,39.13
2022-11-24T15:36:26.116Z,37.13
2022-11-24T15:38:54.857Z,38.73
2022-11-24T15:41:29.356Z,39.27
2022-11-24T15:43:59.802Z,39.00
2022-11-24T15:46:30.767Z,39.33
2022-11-24T15:48:58.865Z,39.60
2022-11-24T15:51:28.133Z,39.20
2022-11-24T15:54:01.004Z,40.77
2022-11-24T15:56:32.370Z,42.17
2022-11-24T15:59:00.827Z,38.77
2022-11-24T16:01:33.245Z,42.37
2022-11-24T16:04:01.674Z,41.60
2022-11-24T16:06:30.248Z,40.03
2022-11-24T16:08:59.228Z,39.20
2022-11-24T16:11:28.134Z,40.47
2022-11-24T16:13:56.369Z,40.10
2022-11-24T16:16:25.545Z,42.33
2022-11-24T16:18:55.284Z,38.73
2022-11-24T16:21:23.588Z,42.20
2022-11-24T16:23:51.817Z,42.57
2022-11-24T16:26:20.172Z,40.93
2022-11-24T16:28:48.272Z,41.87
2022-11-24T16:31:17.948Z,43.80
2022-11-24T16:33:46.591Z,41.80
2022-11-24T16:36:16.660Z,40.53
2022-11-24T16:38:45.292Z,41.80
2022-11-24T16:41:14.372Z,40.43
2022-11-24T16:43:42.576Z,45.53
2022-11-24T16:46:19.534Z,43.83
2022-11-24T16:48:49.320Z,41.10
2022-11-24T16:51:20.875Z,42.73
2022-11-24T16:53:49.414Z,40.70
2022-11-24T16:56:17.756Z,41.70
2022-11-24T16:58:45.911Z,40.13
2022-11-24T17:01:15.607Z,43.67
2022-11-24T17:03:43.996Z,41.33
2022-11-24T17:06:15.757Z,41.77
2022-11-24T17:08:46.372Z,44.30
2022-11-24T17:11:16.595Z,40.67
2022-11-24T17:13:47.007Z,40.33
2022-11-24T17:16:16.829Z,42.47
2022-11-24T17:18:45.359Z,42.90
2022-11-24T17:21:16.347Z,39.93
2022-11-24T17:23:46.164Z,41.70
2022-11-24T17:26:16.726Z,40.03
2022-11-24T17:28:45.484Z,42.13
2022-11-24T17:31:19.409Z,39.93
2022-11-24T17:33:47.454Z,41.40
2022-11-24T17:36:15.888Z,40.97
2022-11-24T17:38:45.600Z,40.63
2022-11-24T17:41:14.141Z,40.77
2022-11-24T17:43:42.328Z,45.27
2022-11-24T17:46:11.784Z,40.77
2022-11-24T17:48:40.181Z,41.17
2022-11-24T17:51:12.696Z,43.43
2022-11-24T17:53:42.312Z,41.10
2022-11-24T17:56:14.275Z,41.77
2022-11-24T17:58:43.283Z,41.40
2022-11-24T18:01:12.688Z,38.73
2022-11-24T18:03:41.233Z,39.30
2022-11-24T18:06:11.114Z,40.00
2022-11-24T18:08:40.765Z,40.60
2022-11-24T18:11:12.803Z,40.13
2022-11-24T18:13:56.641Z,40.57
2022-11-24T18:16:30.270Z,41.13
2022-11-24T18:19:10.139Z,40.23
2022-11-24T18:21:40.309Z,44.10
2022-11-24T18:24:11.120Z,43.97
2022-11-24T18:26:42.080Z,44.67
2022-11-24T18:29:11.440Z,44.83
2022-11-24T18:31:40.255Z,45.70
2022-11-24T18:34:08.850Z,44.00
2022-11-24T18:36:37.744Z,47.03
2022-11-24T18:39:07.812Z,46.80
2022-11-24T18:41:37.081Z,47.57
2022-11-24T18:44:09.545Z,47.17
2022-11-24T18:46:45.329Z,45.03
2022-11-24T18:49:21.582Z,47.17
2022-11-24T18:51:58.671Z,48.13
2022-11-24T18:54:32.949Z,44.87
2022-11-24T18:57:04.307Z,48.43
2022-11-24T18:59:36.853Z,46.07
2022-11-24T19:02:05.706Z,47.40
2022-11-24T19:04:39.449Z,45.20
2022-11-24T19:07:08.014Z,46.53
2022-11-24T19:09:36.191Z,49.67
2022-11-24T19:12:06.283Z,45.43
2022-11-24T19:14:36.261Z,47.80
2022-11-24T19:17:05.964Z,47.93
2022-11-24T19:19:34.178Z,45.50
2022-11-24T19:22:04.693Z,46.30
2022-11-24T19:24:33.347Z,47.27
2022-11-24T19:27:01.943Z,47.17
2022-11-24T19:29:30.107Z,45.50
2022-11-24T19:31:59.917Z,45.17
2022-11-24T19:34:28.038Z,44.97
2022-11-24T19:36:56.668Z,45.27
2022-11-24T19:39:24.909Z,46.97
2022-11-24T19:41:53.982Z,44.10
2022-11-24T19:44:24.143Z,44.27
2022-11-24T19:46:52.578Z,46.03
2022-11-24T19:49:22.022Z,47.70
2022-11-24T19:51:50.800Z,46.90
2022-11-24T19:54:18.943Z,43.40
2022-11-24T19:56:47.768Z,43.73
2022-11-24T19:59:16.197Z,44.57
2022-11-24T20:01:45.092Z,47.03
2022-11-24T20:04:15.490Z,47.30
2022-11-24T20:06:46.996Z,46.77
2022-11-24T20:09:17.725Z,45.47
2022-11-24T20:11:46.985Z,46.80
2022-11-24T20:14:17.433Z,47.70
2022-11-24T20:16:47.671Z,47.03
2022-11-24T20:19:17.491Z,47.73
2022-11-24T20:21:49.916Z,46.60
2022-11-24T20:24:20.493Z,48.97
2022-11-24T20:26:50.652Z,49.43
2022-11-24T20:29:20.215Z,52.73
2022-11-24T20:31:51.105Z,54.90
2022-11-24T20:34:20.050Z,53.43
2022-11-24T20:36:50.442Z,51.10
2022-11-24T20:39:21.809Z,48.10
2022-11-24T20:41:50.248Z,51.27
2022-11-24T20:44:21.339Z,50.67
2022-11-24T20:46:50.364Z,51.00
2022-11-24T20:49:21.774Z,49.33
2022-11-24T20:51:54.502Z,48.93
2022-11-24T20:54:23.222Z,50.83
2022-11-24T20:56:52.739Z,57.17
2022-11-24T20:59:24.442Z,57.23
2022-11-24T21:01:55.291Z,59.87
2022-11-24T21:04:26.446Z,63.90
2022-11-24T21:06:58.018Z,66.10
2022-11-24T21:09:27.199Z,58.87
2022-11-24T21:11:55.898Z,57.80
2022-11-24T21:14:24.629Z,53.90
2022-11-24T21:16:53.105Z,53.80
2022-11-24T21:19:22.475Z,49.07
2022-11-24T21:21:50.970Z,48.47
2022-11-24T21:24:21.613Z,46.33
2022-11-24T21:26:52.889Z,46.83
2022-11-24T21:29:23.608Z,48.20
2022-11-24T21:31:52.691Z,47.63
2022-11-24T21:34:20.959Z,53.43
2022-11-24T21:36:52.671Z,53.20
2022-11-24T21:39:23.409Z,48.10
2022-11-24T21:41:51.905Z,49.10
2022-11-24T21:44:22.996Z,49.03
2022-11-24T21:46:55.874Z,49.03
2022-11-24T21:49:24.419Z,51.13
2022-11-24T21:51:55.862Z,47.30
2022-11-24T21:54:25.573Z,51.80
2022-11-24T21:56:55.459Z,51.43
2022-11-24T21:59:23.614Z,51.63
2022-11-24T22:01:52.140Z,50.70
2022-11-24T22:04:20.242Z,55.77
2022-11-24T22:06:48.586Z,52.13
2022-11-24T22:09:18.434Z,52.30
2022-11-24T22:11:49.652Z,59.30
2022-11-24T22:14:17.867Z,53.63
2022-11-24T22:16:46.554Z,51.23
2022-11-24T22:19:15.267Z,51.13
2022-11-24T22:21:44.340Z,53.67
2022-11-24T22:24:13.033Z,51.13
2022-11-24T22:26:41.498Z,52.13
2022-11-24T22:29:11.368Z,53.13
2022-11-24T22:31:40.177Z,54.40
2022-11-24T22:34:08.381Z,52.17
2022-11-24T22:36:37.627Z,51.73
2022-11-24T22:39:07.006Z,50.53
2022-11-24T22:41:36.617Z,49.47
2022-11-24T22:44:05.598Z,49.60
2022-11-24T22:46:35.287Z,49.23
2022-11-24T22:49:03.413Z,48.80
2022-11-24T22:51:33.253Z,46.00
2022-11-24T22:54:04.351Z,43.83
2022-11-24T22:56:33.296Z,44.20
2022-11-24T22:59:02.618Z,47.40
2022-11-24T23:01:33.508Z,45.17
2022-11-24T23:04:03.925Z,44.87
2022-11-24T23:06:34.081Z,46.10
2022-11-24T23:09:03.644Z,46.60
2022-11-24T23:11:38.050Z,47.40
2022-11-24T23:14:08.429Z,47.80
2022-11-24T23:16:37.357Z,46.43
2022-11-24T23:19:07.023Z,43.87
2022-11-24T23:21:38.245Z,42.93
2022-11-24T23:24:08.500Z,44.87
2022-11-24T23:26:38.725Z,42.37
2022-11-24T23:29:08.105Z,41.83
2022-11-24T23:31:39.847Z,41.80
2022-11-24T23:34:10.236Z,40.23
2022-11-24T23:36:39.454Z,41.30
2022-11-24T23:39:09.812Z,41.83
2022-11-24T23:41:39.178Z,42.20
2022-11-24T23:44:08.028Z,42.83
2022-11-24T23:46:36.459Z,38.83
2022-11-24T23:49:04.528Z,42.47
2022-11-24T23:51:34.423Z,44.40
2022-11-24T23:54:03.142Z,43.23
2022-11-24T23:56:37.500Z,42.20
2022-11-24T23:59:06.232Z,45.73
